createdAt,value
2023-02-28T00:00:37.718Z,101684.29
2023-02-28T00:03:05.101Z,101692.59
2023-02-28T00:05:32.076Z,101693.92
2023-02-28T00:07:58.769Z,101688.71
2023-02-28T00:10:27.643Z,101690.92
2023-02-28T00:12:59.784Z,101690.58
2023-02-28T00:15:27.247Z,101689.76
2023-02-28T00:17:54.278Z,101697.19
2023-02-28T00:20:21.447Z,101698.45
2023-02-28T00:22:49.809Z,101698.66
2023-02-28T00:25:23.926Z,101701.79
2023-02-28T00:27:51.168Z,101702.85
2023-02-28T00:30:22.331Z,101699.30
2023-02-28T00:32:50.322Z,101699.34
2023-02-28T00:35:17.269Z,101701.61
2023-02-28T00:37:44.084Z,101694.74
2023-02-28T00:40:12.412Z,101686.30
2023-02-28T00:42:40.025Z,101690.91
2023-02-28T00:45:08.839Z,101695.68
2023-02-28T00:47:38.315Z,101696.31
2023-02-28T00:50:06.296Z,101696.94
2023-02-28T00:52:33.472Z,101693.66
2023-02-28T00:55:00.437Z,101691.88
2023-02-28T00:57:27.644Z,101692.08
2023-02-28T00:59:57.333Z,101691.77
2023-02-28T01:02:24.181Z,101687.77
2023-02-28T01:04:53.207Z,101686.66
2023-02-28T01:07:20.018Z,101690.70
2023-02-28T01:09:47.268Z,101692.98
2023-02-28T01:12:15.402Z,101691.48
2023-02-28T01:14:43.133Z,101695.27
2023-02-28T01:17:09.954Z,101695.77
2023-02-28T01:19:39.662Z,101694.98
2023-02-28T01:22:06.808Z,101699.30
2023-02-28T01:24:36.215Z,101699.54
2023-02-28T01:27:03.201Z,101698.21
2023-02-28T01:29:30.307Z,101701.39
2023-02-28T01:31:57.704Z,101704.52
2023-02-28T01:34:24.640Z,101706.64
2023-02-28T01:36:51.761Z,101710.81
2023-02-28T01:39:20.039Z,101716.88
2023-02-28T01:41:46.912Z,101717.56
2023-02-28T01:44:51.797Z,101713.11
2023-02-28T01:47:18.533Z,101711.91
2023-02-28T01:49:45.394Z,101707.45
2023-02-28T01:52:18.474Z,101708.49
2023-02-28T01:54:52.719Z,101708.79
2023-02-28T01:57:23.341Z,101711.14
2023-02-28T01:59:52.935Z,101706.99
2023-02-28T02:02:23.014Z,101709.25
2023-02-28T02:05:03.742Z,101711.50
2023-02-28T02:07:33.305Z,101722.36
2023-02-28T02:10:02.529Z,101719.96
2023-02-28T02:12:50.968Z,101719.11
2023-02-28T02:15:34.926Z,101717.59
2023-02-28T02:18:08.535Z,101720.88
2023-02-28T02:21:12.028Z,101721.04
2023-02-28T02:23:45.134Z,101720.20
2023-02-28T02:26:35.718Z,101725.91
2023-02-28T02:29:54.301Z,101728.15
2023-02-28T02:32:44.262Z,101733.43
2023-02-28T02:35:17.707Z,101730.27
2023-02-28T02:38:13.897Z,101732.48
2023-02-28T02:41:04.601Z,101732.13
2023-02-28T02:43:35.326Z,101731.08
2023-02-28T02:46:06.060Z,101727.77
2023-02-28T02:48:34.540Z,101732.94
2023-02-28T02:51:12.341Z,101736.36
2023-02-28T02:53:53.242Z,101738.23
2023-02-28T02:56:21.695Z,101743.45
2023-02-28T02:58:49.859Z,101747.92
2023-02-28T03:01:28.346Z,101752.21
2023-02-28T03:04:03.622Z,101748.80
2023-02-28T03:06:30.686Z,101753.62
2023-02-28T03:08:57.622Z,101753.01
2023-02-28T03:11:24.462Z,101750.48
2023-02-28T03:14:20.081Z,101748.19
2023-02-28T03:17:23.720Z,101753.33
2023-02-28T03:20:03.812Z,101754.02
2023-02-28T03:22:39.810Z,101754.72
2023-02-28T03:25:21.184Z,101760.25
2023-02-28T03:28:14.346Z,101764.09
2023-02-28T03:31:29.124Z,101767.44
2023-02-28T03:34:06.440Z,101769.05
2023-02-28T03:36:44.303Z,101767.02
2023-02-28T03:39:22.618Z,101768.28
2023-02-28T03:42:01.183Z,101774.05
2023-02-28T03:44:34.969Z,101775.61
2023-02-28T03:47:05.471Z,101777.33
2023-02-28T03:49:54.628Z,101775.41
2023-02-28T03:52:22.789Z,101778.52
2023-02-28T03:54:52.642Z,101782.00
2023-02-28T03:57:57.036Z,101781.82
2023-02-28T04:00:33.617Z,101780.52
2023-02-28T04:03:00.359Z,101777.50
2023-02-28T04:05:32.860Z,101778.32
2023-02-28T04:08:07.150Z,101779.14
2023-02-28T04:10:33.845Z,101786.18
2023-02-28T04:13:00.693Z,101786.01
2023-02-28T04:15:28.216Z,101790.33
2023-02-28T04:17:55.143Z,101788.45
2023-02-28T04:20:22.080Z,101790.85
2023-02-28T04:22:48.938Z,101789.99
2023-02-28T04:25:15.807Z,101788.27
2023-02-28T04:27:44.967Z,101793.08
2023-02-28T04:30:13.164Z,101791.35
2023-02-28T04:32:39.980Z,101790.47
2023-02-28T04:35:07.841Z,101785.98
2023-02-28T04:37:35.363Z,101786.70
2023-02-28T04:40:02.809Z,101786.73
2023-02-28T04:42:36.025Z,101787.64
2023-02-28T04:45:03.825Z,101790.44
2023-02-28T04:47:30.746Z,101790.81
2023-02-28T04:49:57.640Z,101792.40
2023-02-28T05:04:14.916Z,101789.92
2023-02-28T05:06:43.089Z,101787.30
2023-02-28T05:09:11.848Z,101790.21
2023-02-28T05:11:40.046Z,101799.15
2023-02-28T05:14:12.217Z,101797.73
2023-02-28T05:16:39.170Z,101799.07
2023-02-28T05:19:06.390Z,101801.91
2023-02-28T05:21:34.911Z,101804.77
2023-02-28T05:24:03.609Z,101801.38
2023-02-28T05:26:30.869Z,101803.30
2023-02-28T05:28:58.088Z,101804.68
2023-02-28T05:31:25.505Z,101808.99
2023-02-28T05:33:52.490Z,101812.79
2023-02-28T05:36:21.080Z,101815.89
2023-02-28T05:38:48.905Z,101812.73
2023-02-28T05:41:20.532Z,101815.50
2023-02-28T05:43:48.332Z,101814.88
2023-02-28T05:46:15.531Z,101818.58
2023-02-28T05:48:42.793Z,101815.39
2023-02-28T05:51:09.841Z,101822.14
2023-02-28T05:53:36.596Z,101822.16
2023-02-28T05:56:04.174Z,101824.73
2023-02-28T05:58:35.158Z,101827.13
2023-02-28T06:01:20.536Z,101832.99
2023-02-28T06:03:47.804Z,101831.44
2023-02-28T06:06:14.539Z,101832.15
2023-02-28T06:08:43.934Z,101831.30
2023-02-28T06:11:14.062Z,101834.77
2023-02-28T06:13:41.279Z,101836.34
2023-02-28T06:16:09.794Z,101837.08
2023-02-28T06:18:37.860Z,101833.13
2023-02-28T06:21:04.896Z,101835.63
2023-02-28T06:23:32.750Z,101838.83
2023-02-28T06:25:59.620Z,101843.76
2023-02-28T06:28:27.281Z,101840.27
2023-02-28T06:30:54.938Z,101835.43
2023-02-28T06:33:21.791Z,101838.15
2023-02-28T06:35:52.042Z,101836.42
2023-02-28T06:38:19.060Z,101828.65
2023-02-28T06:40:55.744Z,101826.35
2023-02-28T06:43:23.532Z,101828.03
2023-02-28T06:45:50.527Z,101827.70
2023-02-28T06:48:21.998Z,101833.60
2023-02-28T06:50:49.682Z,101831.38
2023-02-28T06:53:17.014Z,101832.60
2023-02-28T06:55:43.960Z,101832.08
2023-02-28T06:58:19.200Z,101829.81
2023-02-28T07:00:46.456Z,101833.22
2023-02-28T07:03:15.857Z,101830.45
2023-02-28T07:05:43.002Z,101825.79
2023-02-28T07:08:12.285Z,101828.28
2023-02-28T07:10:39.145Z,101832.46
2023-02-28T07:13:06.300Z,101830.23
2023-02-28T07:15:35.533Z,101821.77
2023-02-28T07:18:03.777Z,101820.55
2023-02-28T07:20:30.823Z,101819.91
2023-02-28T07:22:57.495Z,101826.14
2023-02-28T07:25:27.336Z,101830.61
2023-02-28T07:27:55.645Z,101830.40
2023-02-28T07:30:22.413Z,101823.92
2023-02-28T07:32:50.358Z,101824.04
2023-02-28T07:35:17.519Z,101824.38
2023-02-28T07:37:44.355Z,101824.36
2023-02-28T07:40:12.076Z,101824.39
2023-02-28T07:42:42.929Z,101826.63
2023-02-28T07:45:12.022Z,101830.23
2023-02-28T07:47:39.418Z,101828.33
2023-02-28T07:50:08.059Z,101831.18
2023-02-28T07:52:34.950Z,101825.77
2023-02-28T07:55:01.990Z,101827.08
2023-02-28T07:57:29.042Z,101828.45
2023-02-28T07:59:56.492Z,101833.42
2023-02-28T08:02:23.548Z,101835.84
2023-02-28T08:04:51.736Z,101837.34
2023-02-28T08:07:38.374Z,101836.24
2023-02-28T08:10:06.197Z,101836.02
2023-02-28T08:12:33.138Z,101833.75
2023-02-28T08:14:59.878Z,101836.48
2023-02-28T08:17:26.928Z,101834.08
2023-02-28T08:19:54.079Z,101831.84
2023-02-28T08:22:21.532Z,101832.55
2023-02-28T08:24:49.809Z,101828.93
2023-02-28T08:27:17.879Z,101826.81
2023-02-28T08:29:46.360Z,101827.42
2023-02-28T08:32:27.491Z,101829.79
2023-02-28T08:34:56.021Z,101832.09
2023-02-28T08:37:23.077Z,101833.89
2023-02-28T08:39:50.315Z,101834.86
2023-02-28T08:42:17.545Z,101834.83
2023-02-28T08:44:44.168Z,101833.20
2023-02-28T08:47:11.182Z,101835.17
2023-02-28T08:49:37.996Z,101832.14
2023-02-28T08:52:05.159Z,101832.90
2023-02-28T08:54:33.837Z,101830.60
2023-02-28T08:57:00.777Z,101825.92
2023-02-28T08:59:28.258Z,101830.22
2023-02-28T09:01:55.794Z,101833.20
2023-02-28T09:04:25.129Z,101833.44
2023-02-28T09:06:52.450Z,101834.34
2023-02-28T09:09:20.426Z,101830.86
2023-02-28T09:11:47.471Z,101825.52
2023-02-28T09:14:14.721Z,101824.95
2023-02-28T09:16:42.089Z,101826.20
2023-02-28T09:19:12.100Z,101827.63
2023-02-28T09:21:39.656Z,101827.56
2023-02-28T09:24:07.011Z,101815.35
2023-02-28T09:26:39.116Z,101810.07
2023-02-28T09:29:17.196Z,101811.56
2023-02-28T09:31:44.186Z,101807.98
2023-02-28T09:34:11.292Z,101810.36
2023-02-28T09:36:45.136Z,101807.42
2023-02-28T09:39:15.000Z,101803.02
2023-02-28T09:41:50.880Z,101797.70
2023-02-28T09:44:21.242Z,101792.64
2023-02-28T09:46:50.791Z,101795.35
2023-02-28T09:49:19.782Z,101792.38
2023-02-28T09:51:51.850Z,101791.39
2023-02-28T09:54:22.593Z,101788.33
2023-02-28T09:57:07.766Z,101784.73
2023-02-28T09:59:53.166Z,101780.93
2023-02-28T10:02:32.273Z,101771.64
2023-02-28T10:05:10.799Z,101781.79
2023-02-28T10:07:59.549Z,101776.56
2023-02-28T10:10:43.095Z,101769.73
2023-02-28T10:13:18.004Z,101762.21
2023-02-28T10:15:45.669Z,101765.73
2023-02-28T10:18:15.904Z,101758.77
2023-02-28T10:20:42.632Z,101750.45
2023-02-28T10:23:20.958Z,101754.45
2023-02-28T10:26:05.529Z,101755.04
2023-02-28T10:28:32.879Z,101756.14
2023-02-28T10:31:00.176Z,101747.27
2023-02-28T10:33:34.625Z,101742.51
2023-02-28T10:36:02.354Z,101741.08
2023-02-28T10:38:36.618Z,101747.32
2023-02-28T10:41:05.197Z,101749.99
2023-02-28T10:43:32.555Z,101744.56
2023-02-28T10:46:15.230Z,101732.63
2023-02-28T10:48:48.405Z,101734.30
2023-02-28T10:51:16.755Z,101740.23
2023-02-28T10:53:59.501Z,101727.23
2023-02-28T10:56:27.744Z,101720.80
2023-02-28T10:59:03.085Z,101720.88
2023-02-28T11:01:32.927Z,101720.93
2023-02-28T11:04:00.202Z,101720.81
2023-02-28T11:06:30.303Z,101721.88
2023-02-28T11:09:03.230Z,101725.06
2023-02-28T11:11:32.294Z,101727.01
2023-02-28T11:14:05.232Z,101716.67
2023-02-28T11:16:34.008Z,101708.77
2023-02-28T11:19:07.302Z,101706.77
2023-02-28T11:21:35.313Z,101712.39
2023-02-28T11:24:24.858Z,101708.92
2023-02-28T11:26:51.745Z,101702.77
2023-02-28T11:29:22.794Z,101704.52
2023-02-28T11:32:18.954Z,101700.06
2023-02-28T11:34:46.539Z,101710.71
2023-02-28T11:37:18.614Z,101703.18
2023-02-28T11:39:45.942Z,101695.52
2023-02-28T11:42:15.859Z,101702.25
2023-02-28T11:44:51.798Z,101692.58
2023-02-28T11:47:27.431Z,101691.48
2023-02-28T11:50:16.055Z,101682.33
2023-02-28T11:52:46.284Z,101690.67
2023-02-28T11:55:26.834Z,101694.21
2023-02-28T11:58:17.409Z,101684.38
2023-02-28T12:01:07.751Z,101672.46
2023-02-28T12:03:44.397Z,101671.89
2023-02-28T12:06:30.169Z,101672.27
2023-02-28T12:08:57.113Z,101665.36
2023-02-28T12:12:00.826Z,101656.92
2023-02-28T12:14:41.518Z,101657.95
2023-02-28T12:17:41.413Z,101653.77
2023-02-28T12:20:37.540Z,101660.14
2023-02-28T12:23:19.791Z,101651.86
2023-02-28T12:26:11.985Z,101646.77
2023-02-28T12:28:51.009Z,101642.70
2023-02-28T12:31:29.630Z,101653.20
2023-02-28T12:34:04.465Z,101645.26
2023-02-28T12:36:31.588Z,101651.13
2023-02-28T12:39:04.393Z,101648.81
2023-02-28T12:41:39.952Z,101635.88
2023-02-28T12:44:22.754Z,101638.09
2023-02-28T12:46:51.557Z,101629.59
2023-02-28T12:49:25.044Z,101622.17
2023-02-28T12:51:52.604Z,101620.52
2023-02-28T12:54:44.886Z,101629.14
2023-02-28T12:57:36.166Z,101625.55
2023-02-28T13:00:12.756Z,101627.23
2023-02-28T13:02:48.890Z,101622.06
2023-02-28T13:05:18.702Z,101624.61
2023-02-28T13:08:00.002Z,101624.60
2023-02-28T13:10:39.012Z,101621.29
2023-02-28T13:13:06.217Z,101622.00
2023-02-28T13:15:38.533Z,101618.80
2023-02-28T13:18:05.269Z,101607.00
2023-02-28T13:20:36.623Z,101601.52
2023-02-28T13:23:05.672Z,101595.60
2023-02-28T13:25:42.294Z,101593.96
2023-02-28T13:28:10.774Z,101590.41
2023-02-28T13:30:53.125Z,101590.45
2023-02-28T13:33:20.031Z,101585.72
2023-02-28T13:35:46.920Z,101586.55
2023-02-28T13:38:17.705Z,101579.88
2023-02-28T13:40:44.761Z,101570.40
2023-02-28T13:43:11.802Z,101571.05
2023-02-28T13:45:40.181Z,101569.45
2023-02-28T13:48:19.144Z,101567.06
2023-02-28T13:50:46.012Z,101562.67
2023-02-28T13:53:13.080Z,101559.64
2023-02-28T13:56:04.865Z,101560.95
2023-02-28T13:58:54.924Z,101556.55
2023-02-28T14:01:57.897Z,101552.12
2023-02-28T14:04:40.601Z,101546.60
2023-02-28T14:07:09.838Z,101545.10
2023-02-28T14:09:41.696Z,101542.21
2023-02-28T14:12:46.519Z,101542.72
2023-02-28T14:15:34.729Z,101540.82
2023-02-28T14:18:11.743Z,101544.40
2023-02-28T14:20:40.008Z,101542.46
2023-02-28T14:23:48.908Z,101547.48
2023-02-28T14:26:36.785Z,101532.78
2023-02-28T14:29:41.822Z,101531.88
2023-02-28T14:32:33.313Z,101525.84
2023-02-28T14:35:06.229Z,101517.88
2023-02-28T14:37:34.607Z,101513.65
2023-02-28T14:40:01.766Z,101507.10
2023-02-28T14:42:33.935Z,101505.59
2023-02-28T14:45:01.387Z,101506.16
2023-02-28T14:47:32.492Z,101501.43
2023-02-28T14:50:04.159Z,101502.89
2023-02-28T14:52:32.906Z,101496.56
2023-02-28T14:55:01.459Z,101496.79
2023-02-28T14:57:34.450Z,101496.20
2023-02-28T15:00:10.911Z,101489.36
2023-02-28T15:02:38.276Z,101490.41
2023-02-28T15:05:17.564Z,101496.89
2023-02-28T15:07:45.795Z,101498.02
2023-02-28T15:10:23.982Z,101495.85
2023-02-28T15:12:58.616Z,101494.79
2023-02-28T15:15:36.083Z,101489.64
2023-02-28T15:18:14.266Z,101482.97
2023-02-28T15:20:41.784Z,101483.65
2023-02-28T15:23:08.712Z,101487.80
2023-02-28T15:25:41.400Z,101493.78
2023-02-28T15:28:14.612Z,101495.50
2023-02-28T15:30:59.947Z,101486.67
2023-02-28T15:33:28.341Z,101488.21
2023-02-28T15:36:17.788Z,101485.16
2023-02-28T15:38:44.756Z,101488.42
2023-02-28T15:41:22.859Z,101488.96
2023-02-28T15:44:18.797Z,101489.66
2023-02-28T15:46:55.879Z,101491.77
2023-02-28T15:49:23.477Z,101492.45
2023-02-28T15:51:51.236Z,101497.34
2023-02-28T15:54:27.803Z,101499.79
2023-02-28T15:56:57.520Z,101505.91
2023-02-28T15:59:29.146Z,101507.64
2023-02-28T16:02:04.901Z,101508.68
2023-02-28T16:04:33.619Z,101511.16
2023-02-28T16:07:01.854Z,101516.84
2023-02-28T16:09:34.214Z,101521.09
2023-02-28T16:12:02.411Z,101520.90
2023-02-28T16:14:32.842Z,101521.55
2023-02-28T16:17:05.620Z,101520.35
2023-02-28T16:19:33.897Z,101526.91
2023-02-28T16:22:06.112Z,101523.96
2023-02-28T16:24:34.129Z,101525.21
2023-02-28T16:27:00.957Z,101526.44
2023-02-28T16:29:34.068Z,101523.13
2023-02-28T16:32:01.174Z,101522.35
2023-02-28T16:34:28.415Z,101523.14
2023-02-28T16:36:55.212Z,101522.88
2023-02-28T16:39:22.463Z,101523.84
2023-02-28T16:41:49.713Z,101524.79
2023-02-28T16:44:36.579Z,101526.91
2023-02-28T16:47:04.186Z,101524.41
2023-02-28T16:49:31.142Z,101523.36
2023-02-28T16:51:58.705Z,101524.34
2023-02-28T16:54:25.751Z,101523.92
2023-02-28T16:56:52.476Z,101523.14
2023-02-28T16:59:22.953Z,101523.20
2023-02-28T17:01:52.131Z,101521.70
2023-02-28T17:04:18.949Z,101516.61
2023-02-28T17:06:48.215Z,101512.59
2023-02-28T17:22:33.315Z,101508.87
2023-02-28T17:25:00.255Z,101513.05
2023-02-28T17:27:27.023Z,101511.64
2023-02-28T17:29:53.844Z,101515.23
2023-02-28T17:32:20.837Z,101516.17
2023-02-28T17:34:47.692Z,101512.79
2023-02-28T17:37:16.852Z,101505.60
2023-02-28T17:39:44.496Z,101503.23
2023-02-28T17:42:16.564Z,101499.47
2023-02-28T17:44:43.610Z,101494.96
2023-02-28T17:47:11.272Z,101489.09
2023-02-28T17:49:38.317Z,101491.85
2023-02-28T17:52:05.165Z,101491.64
2023-02-28T17:54:36.411Z,101499.17
2023-02-28T17:57:03.151Z,101501.55
2023-02-28T17:59:33.780Z,101503.92
2023-02-28T18:02:01.311Z,101510.09
2023-02-28T18:04:28.205Z,101513.95
2023-02-28T18:06:56.333Z,101516.05
2023-02-28T18:09:23.207Z,101518.84
2023-02-28T18:11:50.996Z,101523.77
2023-02-28T18:14:18.936Z,101530.28
2023-02-28T18:16:49.771Z,101530.06
2023-02-28T18:19:17.681Z,101529.48
2023-02-28T18:21:46.416Z,101537.65
2023-02-28T18:24:16.138Z,101534.14
2023-02-28T18:26:44.020Z,101535.43
2023-02-28T18:29:21.704Z,101534.45
2023-02-28T18:31:48.749Z,101533.30
2023-02-28T18:34:15.711Z,101530.58
2023-02-28T18:36:46.537Z,101530.39
2023-02-28T18:39:14.248Z,101533.65
2023-02-28T18:41:41.653Z,101538.35
2023-02-28T18:44:19.001Z,101536.50
2023-02-28T18:46:50.496Z,101533.25
2023-02-28T18:49:18.278Z,101529.29
2023-02-28T18:51:46.020Z,101527.54
2023-02-28T18:54:13.375Z,101522.67
2023-02-28T18:56:40.280Z,101528.18
2023-02-28T18:59:07.029Z,101525.37
2023-02-28T19:01:33.991Z,101521.73
2023-02-28T19:04:01.384Z,101524.34
2023-02-28T19:06:29.008Z,101524.79
2023-02-28T19:08:59.453Z,101531.07
2023-02-28T19:11:26.502Z,101526.44
2023-02-28T19:13:54.096Z,101525.45
2023-02-28T19:16:22.297Z,101519.29
2023-02-28T19:18:49.299Z,101516.34
2023-02-28T19:21:18.824Z,101509.78
2023-02-28T19:23:46.141Z,101509.65
2023-02-28T19:26:20.130Z,101510.73
2023-02-28T19:28:47.028Z,101504.90
2023-02-28T19:31:15.454Z,101506.83
2023-02-28T19:33:43.252Z,101506.88
2023-02-28T19:36:13.061Z,101507.46
2023-02-28T19:38:41.341Z,101504.21
2023-02-28T19:41:10.019Z,101500.82
2023-02-28T19:43:37.077Z,101499.30
2023-02-28T19:46:08.883Z,101495.89
2023-02-28T19:48:36.203Z,101482.66
2023-02-28T19:51:08.646Z,101477.35
2023-02-28T19:53:36.335Z,101475.48
2023-02-28T19:56:03.992Z,101477.27
2023-02-28T19:58:31.437Z,101481.39
2023-02-28T20:01:00.659Z,101486.32
2023-02-28T20:03:27.636Z,101483.23
2023-02-28T20:06:00.676Z,101474.58
2023-02-28T20:08:28.438Z,101477.71
2023-02-28T20:10:55.283Z,101478.72
2023-02-28T20:13:28.033Z,101474.41
2023-02-28T20:15:55.517Z,101474.27
2023-02-28T20:18:22.356Z,101472.51
2023-02-28T20:20:49.718Z,101468.01
2023-02-28T20:23:18.096Z,101462.53
2023-02-28T20:25:44.896Z,101459.84
2023-02-28T20:28:11.582Z,101459.78
2023-02-28T20:30:39.062Z,101459.72
2023-02-28T20:33:06.341Z,101455.83
2023-02-28T20:35:36.546Z,101452.38
2023-02-28T20:38:03.465Z,101461.30
2023-02-28T20:40:31.431Z,101466.88
2023-02-28T20:43:02.983Z,101465.41
2023-02-28T20:45:34.022Z,101462.37
2023-02-28T20:48:00.970Z,101469.28
2023-02-28T20:50:27.817Z,101471.00
2023-02-28T20:52:55.502Z,101470.13
2023-02-28T20:55:22.526Z,101468.60
2023-02-28T20:57:50.253Z,101467.35
2023-02-28T21:00:19.947Z,101467.95
2023-02-28T21:02:47.484Z,101463.44
2023-02-28T21:05:14.435Z,101454.30
2023-02-28T21:07:41.479Z,101445.59
2023-02-28T21:10:10.090Z,101449.06
2023-02-28T21:12:36.981Z,101448.48
2023-02-28T21:15:04.030Z,101447.02
2023-02-28T21:17:32.513Z,101438.88
2023-02-28T21:19:59.225Z,101445.52
2023-02-28T21:22:28.484Z,101444.91
2023-02-28T21:24:55.704Z,101441.38
2023-02-28T21:27:22.961Z,101438.87
2023-02-28T21:29:50.011Z,101432.61
2023-02-28T21:32:17.182Z,101424.80
2023-02-28T21:34:50.245Z,101421.76
2023-02-28T21:37:17.144Z,101421.64
2023-02-28T21:39:44.653Z,101414.27
2023-02-28T21:42:12.452Z,101414.81
2023-02-28T21:44:39.628Z,101412.93
2023-02-28T21:47:06.511Z,101412.63
2023-02-28T21:49:34.272Z,101412.97
2023-02-28T21:52:01.258Z,101407.65
2023-02-28T21:54:28.384Z,101401.82
2023-02-28T21:56:55.413Z,101394.63
2023-02-28T21:59:23.281Z,101396.38
2023-02-28T22:01:51.099Z,101394.67
2023-02-28T22:04:20.700Z,101393.48
2023-02-28T22:06:52.108Z,101393.15
2023-02-28T22:09:18.947Z,101385.42
2023-02-28T22:11:45.900Z,101379.77
2023-02-28T22:14:14.172Z,101371.71
2023-02-28T22:16:54.462Z,101363.27
2023-02-28T22:19:22.613Z,101369.52
2023-02-28T22:21:49.750Z,101362.48
2023-02-28T22:24:19.953Z,101359.08
2023-02-28T22:26:48.528Z,101358.27
2023-02-28T22:29:15.399Z,101359.21
2023-02-28T22:31:42.134Z,101355.04
2023-02-28T22:34:12.448Z,101348.52
2023-02-28T22:36:40.951Z,101345.45
2023-02-28T22:39:08.055Z,101339.98
2023-02-28T22:41:34.836Z,101338.81
2023-02-28T22:44:04.482Z,101339.01
2023-02-28T22:46:32.754Z,101342.83
2023-02-28T22:49:01.209Z,101339.44
2023-02-28T22:51:28.247Z,101341.05
2023-02-28T22:53:55.524Z,101340.80
2023-02-28T22:56:26.143Z,101339.85
2023-02-28T22:58:54.917Z,101340.70
2023-02-28T23:01:22.930Z,101340.02
2023-02-28T23:03:50.269Z,101337.63
2023-02-28T23:06:24.462Z,101339.21
2023-02-28T23:08:53.059Z,101334.64
2023-02-28T23:11:36.321Z,101344.85
2023-02-28T23:14:04.066Z,101346.81
2023-02-28T23:16:39.774Z,101348.23
2023-02-28T23:19:17.698Z,101348.02
2023-02-28T23:21:44.873Z,101343.10
2023-02-28T23:24:12.586Z,101344.13
2023-02-28T23:26:43.242Z,101335.00
2023-02-28T23:29:11.417Z,101333.69
2023-02-28T23:31:39.676Z,101336.85
2023-02-28T23:34:07.624Z,101338.50
2023-02-28T23:36:34.604Z,101334.24
2023-02-28T23:39:01.451Z,101334.65
2023-02-28T23:41:28.598Z,101334.23
2023-02-28T23:43:55.645Z,101331.88
2023-02-28T23:46:22.412Z,101338.29
2023-02-28T23:48:49.761Z,101333.34
2023-02-28T23:51:18.631Z,101326.33
2023-02-28T23:53:47.168Z,101320.70
2023-02-28T23:56:16.316Z,101316.73
2023-02-28T23:58:47.688Z,101307.27
